Athens, Alabama
Current Conditions -  °F | °C
As of 2:53 AM on Monday 24 Nov 2014 (Local Time) from KDCU Reporting Station
Clear Clear  
Wind Chill: 17°   Ceiling: Unl
Heat Index: 17°   Visibility: 10mi
Dew Point: 13°   Wind: 18mph
Humidity: 78%   Direction: 200°SSW
Pressure: 29.61"   Gusts: NA
Location:  34.8°N, 86.97°W
Report Text: KDCU 240853Z AUTO 20016KT 10SM CLR 17/13 A2961 RMK AO2 SLP024 T01670128 53002
Loading
Personal Weather Stations






























Interactive Weather Map New forecast layout! Learn more

10-Day Weather Forecast

Advertisements
Track Severe Weather on mobile